Terminal Aerodrome Forecast
Issued by NWS Louisville, KY

Home | Current Version | Previous Version | Text Only | Print | Product List | Glossary On
Versions: 1 2 3 4 5 6 7 8 9 10 11 12 13 14 15
373
FTUS43 KLMK 271724
TAFSDF
TAF
KSDF 271724Z 2718/2824 32007KT P6SM VCTS BKN040CB BKN150
     FM271900 17005KT P6SM SCT035 BKN150
     FM280000 18003KT P6SM SCT250
     FM280800 VRB03KT 6SM BR FEW250
     FM281200 04004KT P6SM FEW040 SCT250=

USA.gov is the U.S. government's official web portal to all federal, state and local government web resources and services.